Time,TemperatureF,DewpointF,PressureIn,WindDirection,WindDirectionDegrees,WindSpeedMPH,WindSpeedGustMPH,Humidity,HourlyPrecipIn,Conditions,Clouds,dailyrainin,SolarRadiationWatts/m^2,SoftwareType,DateUTC
2013-07-27 00:01:00,63.0,63.0,-100.00,SSE,154,1.0,5.0,100,0.00,,,0.00,0.000000,,2013-07-27 04:01:00,
2013-07-27 00:32:00,63.0,63.0,-100.00,SSE,154,1.0,5.0,100,0.00,,,0.00,0.000000,,2013-07-27 04:32:00,
2013-07-27 00:43:00,63.0,63.0,-100.00,SSE,154,1.0,5.0,100,0.00,,,0.00,0.000000,,2013-07-27 04:43:00,
2013-07-27 00:53:00,63.0,63.0,-100.00,SSE,154,1.0,5.0,100,0.00,,,0.00,0.000000,,2013-07-27 04:53:00,
2013-07-27 01:01:00,64.0,64.0,-100.00,SW,217,2.0,5.0,100,0.00,,,0.00,0.000000,,2013-07-27 05:01:00,
2013-07-27 01:33:00,64.0,64.0,-100.00,SW,217,2.0,5.0,100,0.00,,,0.00,0.000000,,2013-07-27 05:33:00,
2013-07-27 01:43:00,64.0,64.0,-100.00,SW,217,2.0,5.0,100,0.00,,,0.00,0.000000,,2013-07-27 05:43:00,
2013-07-27 01:52:00,64.0,64.0,-100.00,SW,217,2.0,5.0,100,0.00,,,0.00,0.000000,,2013-07-27 05:52:00,
2013-07-27 02:01:00,64.0,64.0,-100.00,SSW,209,3.0,6.0,100,0.00,,,0.00,0.000000,,2013-07-27 06:01:00,
2013-07-27 02:33:00,64.0,64.0,-100.00,SSW,209,3.0,6.0,100,0.00,,,0.00,0.000000,,2013-07-27 06:33:00,
2013-07-27 02:43:00,64.0,64.0,-100.00,SSW,209,3.0,6.0,100,0.00,,,0.00,0.000000,,2013-07-27 06:43:00,
2013-07-27 02:52:00,64.0,64.0,-100.00,SSW,209,3.0,6.0,100,0.00,,,0.00,0.000000,,2013-07-27 06:52:00,
2013-07-27 03:01:00,63.0,63.0,-100.00,SSW,213,3.0,6.0,100,0.00,,,0.00,0.000000,,2013-07-27 07:01:00,
2013-07-27 03:34:00,63.0,63.0,-100.00,SSW,213,3.0,6.0,100,0.00,,,0.00,0.000000,,2013-07-27 07:34:00,
2013-07-27 03:44:00,63.0,63.0,-100.00,SSW,213,3.0,6.0,100,0.00,,,0.00,0.000000,,2013-07-27 07:44:00,
2013-07-27 03:53:00,63.0,63.0,-100.00,SSW,213,3.0,6.0,100,0.00,,,0.00,0.000000,,2013-07-27 07:53:00,
2013-07-27 04:01:00,63.0,63.0,-100.00,SSW,199,5.0,8.0,100,0.00,,,0.00,0.000000,,2013-07-27 08:01:00,
2013-07-27 04:22:00,63.0,63.0,-100.00,SSW,199,5.0,8.0,100,0.00,,,0.00,0.000000,,2013-07-27 08:22:00,
2013-07-27 04:32:00,63.0,63.0,-100.00,SSW,199,5.0,8.0,100,0.00,,,0.00,0.000000,,2013-07-27 08:32:00,
2013-07-27 04:43:00,63.0,63.0,-100.00,SSW,199,5.0,8.0,100,0.00,,,0.00,0.000000,,2013-07-27 08:43:00,
2013-07-27 04:53:00,63.0,63.0,-100.00,SSW,199,5.0,8.0,100,0.00,,,0.00,0.000000,,2013-07-27 08:53:00,
2013-07-27 05:01:00,63.0,63.0,-100.00,SSW,197,5.0,9.0,100,0.00,,,0.00,0.000000,,2013-07-27 09:01:00,
2013-07-27 05:22:00,63.0,63.0,-100.00,SSW,197,5.0,9.0,100,0.00,,,0.00,0.000000,,2013-07-27 09:22:00,
2013-07-27 05:33:00,63.0,63.0,-100.00,SSW,197,5.0,9.0,100,0.00,,,0.00,0.000000,,2013-07-27 09:33:00,
2013-07-27 05:44:00,63.0,63.0,-100.00,SSW,197,5.0,9.0,100,0.00,,,0.00,0.000000,,2013-07-27 09:44:00,
2013-07-27 05:52:00,63.0,63.0,-100.00,SSW,197,5.0,9.0,100,0.00,,,0.00,0.000000,,2013-07-27 09:52:00,
2013-07-27 06:01:00,63.0,63.0,-100.00,SSW,194,4.0,9.0,100,0.00,,,0.00,0.000000,,2013-07-27 10:01:00,
2013-07-27 06:32:00,63.0,63.0,-100.00,SSW,194,4.0,9.0,100,0.00,,,0.00,0.000000,,2013-07-27 10:32:00,
2013-07-27 06:44:00,63.0,63.0,-100.00,SSW,194,4.0,9.0,100,0.00,,,0.00,0.000000,,2013-07-27 10:44:00,
2013-07-27 06:52:00,63.0,63.0,-100.00,SSW,194,4.0,9.0,100,0.00,,,0.00,0.000000,,2013-07-27 10:52:00,
2013-07-27 07:01:00,63.0,63.0,-100.00,South,181,4.0,7.0,100,0.00,,,0.00,4.000000,,2013-07-27 11:01:00,
2013-07-27 07:32:00,63.0,63.0,-100.00,South,181,4.0,7.0,100,0.00,,,0.00,4.000000,,2013-07-27 11:32:00,
2013-07-27 07:44:00,63.0,63.0,-100.00,South,181,4.0,7.0,100,0.00,,,0.00,4.000000,,2013-07-27 11:44:00,
2013-07-27 07:53:00,63.0,63.0,-100.00,South,181,4.0,7.0,100,0.00,,,0.00,4.000000,,2013-07-27 11:53:00,
2013-07-27 08:01:00,63.0,63.0,-100.00,South,183,6.0,13.0,100,0.00,,,0.00,33.000000,,2013-07-27 12:01:00,
2013-07-27 08:33:00,63.0,63.0,-100.00,South,183,6.0,13.0,100,0.00,,,0.00,33.000000,,2013-07-27 12:33:00,
2013-07-27 08:43:00,63.0,63.0,-100.00,South,183,6.0,13.0,100,0.00,,,0.00,33.000000,,2013-07-27 12:43:00,
2013-07-27 08:52:00,63.0,63.0,-100.00,South,183,6.0,13.0,100,0.00,,,0.00,33.000000,,2013-07-27 12:52:00,
2013-07-27 09:01:00,62.0,62.0,-100.00,South,191,6.0,14.0,100,0.01,,,0.01,58.000000,,2013-07-27 13:01:00,
2013-07-27 09:44:00,62.0,62.0,-100.00,South,191,6.0,14.0,100,0.01,,,0.01,58.000000,,2013-07-27 13:44:00,
2013-07-27 09:53:00,62.0,62.0,-100.00,South,191,6.0,14.0,100,0.01,,,0.01,58.000000,,2013-07-27 13:53:00,
2013-07-27 10:01:00,61.0,61.0,-100.00,SSW,195,4.0,12.0,100,0.04,,,0.05,62.000000,,2013-07-27 14:01:00,
2013-07-27 10:33:00,61.0,61.0,-100.00,SSW,195,4.0,12.0,100,0.04,,,0.05,62.000000,,2013-07-27 14:33:00,
2013-07-27 10:44:00,61.0,61.0,-100.00,SSW,195,4.0,12.0,100,0.04,,,0.05,62.000000,,2013-07-27 14:44:00,
2013-07-27 10:54:00,61.0,61.0,-100.00,SSW,195,4.0,12.0,100,0.04,,,0.05,62.000000,,2013-07-27 14:54:00,
2013-07-27 11:01:00,62.0,62.0,-100.00,SSW,203,2.0,10.0,100,0.06,,,0.11,61.000000,,2013-07-27 15:01:00,
2013-07-27 11:33:00,62.0,62.0,-100.00,SSW,203,2.0,10.0,100,0.06,,,0.11,61.000000,,2013-07-27 15:33:00,
2013-07-27 11:44:00,62.0,62.0,-100.00,SSW,203,2.0,10.0,100,0.06,,,0.11,61.000000,,2013-07-27 15:44:00,
2013-07-27 11:53:00,62.0,62.0,-100.00,SSW,203,2.0,10.0,100,0.06,,,0.11,61.000000,,2013-07-27 15:53:00,
2013-07-27 12:01:00,62.0,62.0,-100.00,SSW,208,3.0,7.0,100,0.20,,,0.31,110.000000,,2013-07-27 16:01:00,
2013-07-27 12:33:00,62.0,62.0,-100.00,SSW,208,3.0,7.0,100,0.20,,,0.31,110.000000,,2013-07-27 16:33:00,
2013-07-27 12:43:00,62.0,62.0,-100.00,SSW,208,3.0,7.0,100,0.20,,,0.31,110.000000,,2013-07-27 16:43:00,
2013-07-27 12:54:00,62.0,62.0,-100.00,SSW,208,3.0,7.0,100,0.20,,,0.31,110.000000,,2013-07-27 16:54:00,
2013-07-27 13:01:00,64.0,64.0,-100.00,South,181,3.0,7.0,100,0.01,,,0.32,257.000000,,2013-07-27 17:01:00,
2013-07-27 13:23:00,64.0,64.0,-100.00,South,181,3.0,7.0,100,0.01,,,0.32,257.000000,,2013-07-27 17:23:00,
2013-07-27 13:32:00,64.0,64.0,-100.00,South,181,3.0,7.0,100,0.01,,,0.32,257.000000,,2013-07-27 17:32:00,
2013-07-27 13:43:00,64.0,64.0,-100.00,South,181,3.0,7.0,100,0.01,,,0.32,257.000000,,2013-07-27 17:43:00,
2013-07-27 13:54:00,64.0,64.0,-100.00,South,181,3.0,7.0,100,0.01,,,0.32,257.000000,,2013-07-27 17:54:00,
2013-07-27 14:01:00,62.0,62.0,-100.00,South,175,5.0,16.0,100,0.17,,,0.49,116.000000,,2013-07-27 18:01:00,
2013-07-27 14:22:00,62.0,62.0,-100.00,South,175,5.0,16.0,100,0.17,,,0.49,116.000000,,2013-07-27 18:22:00,
2013-07-27 14:33:00,62.0,62.0,-100.00,South,175,5.0,16.0,100,0.17,,,0.49,116.000000,,2013-07-27 18:33:00,
2013-07-27 14:43:00,62.0,62.0,-100.00,South,175,5.0,16.0,100,0.17,,,0.49,116.000000,,2013-07-27 18:43:00,
2013-07-27 14:53:00,62.0,62.0,-100.00,South,175,5.0,16.0,100,0.17,,,0.49,116.000000,,2013-07-27 18:53:00,
2013-07-27 15:01:00,63.0,63.0,-100.00,South,187,5.0,12.0,100,0.04,,,0.53,191.000000,,2013-07-27 19:01:00,
2013-07-27 15:23:00,63.0,63.0,-100.00,South,187,5.0,12.0,100,0.04,,,0.53,191.000000,,2013-07-27 19:23:00,
2013-07-27 15:32:00,63.0,63.0,-100.00,South,187,5.0,12.0,100,0.04,,,0.53,191.000000,,2013-07-27 19:32:00,
2013-07-27 15:43:00,63.0,63.0,-100.00,South,187,5.0,12.0,100,0.04,,,0.53,191.000000,,2013-07-27 19:43:00,
2013-07-27 15:53:00,63.0,63.0,-100.00,South,187,5.0,12.0,100,0.04,,,0.53,191.000000,,2013-07-27 19:53:00,
2013-07-27 16:01:00,63.0,63.0,-100.00,South,184,3.0,12.0,100,0.01,,,0.54,161.000000,,2013-07-27 20:01:00,
2013-07-27 16:23:00,63.0,63.0,-100.00,South,184,3.0,12.0,100,0.01,,,0.54,161.000000,,2013-07-27 20:23:00,
2013-07-27 16:33:00,63.0,63.0,-100.00,South,184,3.0,12.0,100,0.01,,,0.54,161.000000,,2013-07-27 20:33:00,
2013-07-27 16:43:00,63.0,63.0,-100.00,South,184,3.0,12.0,100,0.01,,,0.54,161.000000,,2013-07-27 20:43:00,
2013-07-27 16:52:00,63.0,63.0,-100.00,South,184,3.0,12.0,100,0.01,,,0.54,161.000000,,2013-07-27 20:52:00,
2013-07-27 17:01:00,65.0,65.0,-100.00,South,169,2.0,7.0,100,0.00,,,0.54,170.000000,,2013-07-27 21:01:00,
2013-07-27 17:23:00,65.0,65.0,-100.00,South,169,2.0,7.0,100,0.00,,,0.54,170.000000,,2013-07-27 21:23:00,
2013-07-27 17:33:00,65.0,65.0,-100.00,South,169,2.0,7.0,100,0.00,,,0.54,170.000000,,2013-07-27 21:33:00,
2013-07-27 17:43:00,65.0,65.0,-100.00,South,169,2.0,7.0,100,0.00,,,0.54,170.000000,,2013-07-27 21:43:00,
2013-07-27 17:53:00,65.0,65.0,-100.00,South,169,2.0,7.0,100,0.00,,,0.54,170.000000,,2013-07-27 21:53:00,
2013-07-27 18:01:00,66.0,66.0,-100.00,South,173,3.0,9.0,100,0.00,,,0.54,305.000000,,2013-07-27 22:01:00,
2013-07-27 18:22:00,66.0,66.0,-100.00,South,173,3.0,9.0,100,0.00,,,0.54,305.000000,,2013-07-27 22:22:00,
2013-07-27 18:33:00,66.0,66.0,-100.00,South,173,3.0,9.0,100,0.00,,,0.54,305.000000,,2013-07-27 22:33:00,
2013-07-27 18:43:00,66.0,66.0,-100.00,South,173,3.0,9.0,100,0.00,,,0.54,305.000000,,2013-07-27 22:43:00,
2013-07-27 18:53:00,66.0,66.0,-100.00,South,173,3.0,9.0,100,0.00,,,0.54,305.000000,,2013-07-27 22:53:00,
2013-07-27 19:01:00,65.0,65.0,-100.00,SW,217,2.0,4.0,100,0.00,,,0.54,121.000000,,2013-07-27 23:01:00,
2013-07-27 19:22:00,65.0,65.0,-100.00,SW,217,2.0,4.0,100,0.00,,,0.54,121.000000,,2013-07-27 23:22:00,
2013-07-27 19:32:00,65.0,65.0,-100.00,SW,217,2.0,4.0,100,0.00,,,0.54,121.000000,,2013-07-27 23:32:00,
2013-07-27 19:44:00,65.0,65.0,-100.00,SW,217,2.0,4.0,100,0.00,,,0.54,121.000000,,2013-07-27 23:44:00,
2013-07-27 19:53:00,65.0,65.0,-100.00,SW,217,2.0,4.0,100,0.00,,,0.54,121.000000,,2013-07-27 23:53:00,
2013-07-27 20:01:00,63.0,63.0,-100.00,South,184,3.0,7.0,100,0.53,,,1.07,27.000000,,2013-07-28 00:01:00,
2013-07-27 20:23:00,63.0,63.0,-100.00,South,184,3.0,7.0,100,0.53,,,1.07,27.000000,,2013-07-28 00:23:00,
2013-07-27 20:32:00,63.0,63.0,-100.00,South,184,3.0,7.0,100,0.53,,,1.07,27.000000,,2013-07-28 00:32:00,
2013-07-27 20:44:00,63.0,63.0,-100.00,South,184,3.0,7.0,100,0.53,,,1.07,27.000000,,2013-07-28 00:44:00,
2013-07-27 20:53:00,63.0,63.0,-100.00,South,184,3.0,7.0,100,0.53,,,1.07,27.000000,,2013-07-28 00:53:00,
2013-07-27 21:01:00,62.0,62.0,-100.00,SE,143,2.0,12.0,100,0.39,,,1.46,3.000000,,2013-07-28 01:01:00,
2013-07-27 21:23:00,62.0,62.0,-100.00,SE,143,2.0,12.0,100,0.39,,,1.46,3.000000,,2013-07-28 01:23:00,
2013-07-27 21:32:00,62.0,62.0,-100.00,SE,143,2.0,12.0,100,0.39,,,1.46,3.000000,,2013-07-28 01:32:00,
2013-07-27 21:43:00,62.0,62.0,-100.00,SE,143,2.0,12.0,100,0.39,,,1.46,3.000000,,2013-07-28 01:43:00,
2013-07-27 21:53:00,62.0,62.0,-100.00,SE,143,2.0,12.0,100,0.39,,,1.46,3.000000,,2013-07-28 01:53:00,
2013-07-27 22:01:00,62.0,62.0,-100.00,SW,218,2.0,6.0,100,0.16,,,1.62,0.000000,,2013-07-28 02:01:00,
2013-07-27 22:23:00,62.0,62.0,-100.00,SW,218,2.0,6.0,100,0.16,,,1.62,0.000000,,2013-07-28 02:23:00,
2013-07-27 22:32:00,62.0,62.0,-100.00,SW,218,2.0,6.0,100,0.16,,,1.62,0.000000,,2013-07-28 02:32:00,
2013-07-27 22:42:00,62.0,62.0,-100.00,SW,218,2.0,6.0,100,0.16,,,1.62,0.000000,,2013-07-28 02:42:00,
2013-07-27 22:53:00,62.0,62.0,-100.00,SW,218,2.0,6.0,100,0.16,,,1.62,0.000000,,2013-07-28 02:53:00,
2013-07-27 23:01:00,61.0,61.0,-100.00,SSW,199,1.0,4.0,100,0.00,,,1.62,0.000000,,2013-07-28 03:01:00,
2013-07-27 23:22:00,61.0,61.0,-100.00,SSW,199,1.0,4.0,100,0.00,,,1.62,0.000000,,2013-07-28 03:22:00,
2013-07-27 23:32:00,61.0,61.0,-100.00,SSW,199,1.0,4.0,100,0.00,,,1.62,0.000000,,2013-07-28 03:32:00,
2013-07-27 23:43:00,61.0,61.0,-100.00,SSW,199,1.0,4.0,100,0.00,,,1.62,0.000000,,2013-07-28 03:43:00,
2013-07-27 23:53:00,61.0,61.0,-100.00,SSW,199,1.0,4.0,100,0.00,,,1.62,0.000000,,2013-07-28 03:53:00,